地図

経路データ

SID SEASON NUMBER BASIN SUBBASIN NAME ISO_TIME NATURE LAT LON WMO_WIND WMO_PRES WMO_AGENCY TRACK_TYPE DIST2LAND LANDFALL IFLAG USA_AGENCY USA_ATCF_ID USA_LAT USA_LON USA_RECORD USA_STATUS USA_WIND USA_PRES USA_SSHS USA_R34_NE USA_R34_SE USA_R34_SW USA_R34_NW USA_R50_NE USA_R50_SE USA_R50_SW USA_R50_NW USA_R64_NE USA_R64_SE USA_R64_SW USA_R64_NW USA_POCI USA_ROCI USA_RMW USA_EYE TOKYO_LAT TOKYO_LON TOKYO_GRADE TOKYO_WIND TOKYO_PRES TOKYO_R50_DIR TOKYO_R50_LONG TOKYO_R50_SHORT TOKYO_R30_DIR TOKYO_R30_LONG TOKYO_R30_SHORT TOKYO_LAND CMA_LAT CMA_LON CMA_CAT CMA_WIND CMA_PRES HKO_LAT HKO_LON HKO_CAT HKO_WIND HKO_PRES NEWDELHI_LAT NEWDELHI_LON NEWDELHI_GRADE NEWDELHI_WIND NEWDELHI_PRES NEWDELHI_CI NEWDELHI_DP NEWDELHI_POCI REUNION_LAT REUNION_LON REUNION_TYPE REUNION_WIND REUNION_PRES REUNION_TNUM REUNION_CI REUNION_RMW REUNION_R34_NE REUNION_R34_SE REUNION_R34_SW REUNION_R34_NW REUNION_R50_NE REUNION_R50_SE REUNION_R50_SW REUNION_R50_NW REUNION_R64_NE REUNION_R64_SE REUNION_R64_SW REUNION_R64_NW BOM_LAT BOM_LON BOM_TYPE BOM_WIND BOM_PRES BOM_TNUM BOM_CI BOM_RMW BOM_R34_NE BOM_R34_SE BOM_R34_SW BOM_R34_NW BOM_R50_NE BOM_R50_SE BOM_R50_SW BOM_R50_NW BOM_R64_NE BOM_R64_SE BOM_R64_SW BOM_R64_NW BOM_ROCI BOM_POCI BOM_EYE BOM_POS_METHOD BOM_PRES_METHOD NADI_LAT NADI_LON NADI_CAT NADI_WIND NADI_PRES WELLINGTON_LAT WELLINGTON_LON WELLINGTON_WIND WELLINGTON_PRES DS824_LAT DS824_LON DS824_STAGE DS824_WIND DS824_PRES TD9636_LAT TD9636_LON TD9636_STAGE TD9636_WIND TD9636_PRES TD9635_LAT TD9635_LON TD9635_WIND TD9635_PRES TD9635_ROCI NEUMANN_LAT NEUMANN_LON NEUMANN_CLASS NEUMANN_WIND NEUMANN_PRES MLC_LAT MLC_LON MLC_CLASS MLC_WIND MLC_PRES USA_GUST BOM_GUST BOM_GUST_PER REUNION_GUST REUNION_GUST_PER USA_SEAHGT USA_SEARAD_NE USA_SEARAD_SE USA_SEARAD_SW USA_SEARAD_NW STORM_SPEED STORM_DIR
2000272N24165 2000 90 WP MM NOT_NAMED 2000-09-27 18:00:00 TS 23.9000 165.100 main 2666 2647 O_____________ jtwc_wp WP272000 23.9000 165.100 TD 20 -1 6 0
2000272N24165 2000 90 WP MM NOT_NAMED 2000-09-27 21:00:00 TS 24.2025 165.102 main 2647 2628 P_____________ WP272000 24.2025 165.102 TD 20 -1 6 1
2000272N24165 2000 90 WP MM NOT_NAMED 2000-09-28 00:00:00 TS 24.5000 165.100 main 2628 2610 O_____________ jtwc_wp WP272000 24.5000 165.100 TD 20 -1 6 0
2000272N24165 2000 90 WP MM NOT_NAMED 2000-09-28 03:00:00 TS 24.7925 165.093 main 2610 2591 P_____________ WP272000 24.7925 165.093 TD 20 -1 6 0
2000272N24165 2000 90 WP MM NOT_NAMED 2000-09-28 06:00:00 TS 25.1000 165.100 main 2591 2573 O_____________ jtwc_wp WP272000 25.1000 165.100 TD 20 -1 6 4
2000272N24165 2000 90 WP MM NOT_NAMED 2000-09-28 09:00:00 TS 25.4275 165.135 main 2573 2558 P_____________ WP272000 25.4275 165.135 TD 22 -1 7 7
2000272N24165 2000 90 WP MM NOT_NAMED 2000-09-28 12:00:00 TS 25.8000 165.200 main 2558 2544 O_____________ jtwc_wp WP272000 25.8000 165.200 TD 25 -1 8 9
2000272N24165 2000 90 WP MM NOT_NAMED 2000-09-28 15:00:00 TS 26.2575 165.285 main 2538 2516 P_____________ WP272000 26.2575 165.285 TD 25 -1 9 4
2000272N24165 2000 90 WP MM NOT_NAMED 2000-09-28 18:00:00 TS 26.7000 165.280 main 2516 2492 O__O__________ jtwc_wp WP272000 26.7000 165.400 TD 25 -1 26.7000 164.800 TD 30 1004 8 7
2000272N24165 2000 90 WP MM NOT_NAMED 2000-09-28 21:00:00 TS 27.0342 165.389 main 2492 2468 P__P__________ WP272000 27.0225 165.535 TD 30 -1 27.0576 165.097 TD 30 1004 7 22
2000272N24165 2000 90 WP MM NOT_NAMED 2000-09-29 00:00:00 TS 27.3429 165.571 main 2473 2449 O__O__________ jtwc_wp WP272000 27.3000 165.700 TS 35 0 27.4000 165.400 TD 30 1004 7 30
2000272N24165 2000 90 WP MM NOT_NAMED 2000-09-29 03:00:00 TS 27.6650 165.804 main 2445 2436 P__P__________ WP272000 27.6150 165.900 TS 35 0 27.7150 165.708 TD 30 1004 7 35
2000272N24165 2000 90 WP MM NOT_NAMED 2000-09-29 06:00:00 TS 27.9500 166.050 main 2431 2418 O__O__________ jtwc_wp WP272000 27.9000 166.100 TS 35 0 28.0000 166.000 TD 30 1004 7 37
2000272N24165 2000 90 WP MM NOT_NAMED 2000-09-29 09:00:00 TS 28.1937 166.258 main 2423 2409 P__P__________ WP272000 28.1149 166.250 TS 32 -1 28.2724 166.265 TD 27 1005 6 38
2000272N24165 2000 90 WP MM NOT_NAMED 2000-09-29 12:00:00 TS 28.4000 166.450 main 2415 2401 O__O__________ jtwc_wp WP272000 28.3000 166.400 TD 30 -1 28.5000 166.500 TD 25 1006 5 41
2000272N24165 2000 90 WP MM NOT_NAMED 2000-09-29 15:00:00 TS 28.5824 166.646 main 2401 2397 P__P__________ WP272000 28.5000 166.585 TD 30 -1 28.6649 166.708 TD 25 1006 5 45
2000272N24165 2000 90 WP MM NOT_NAMED 2000-09-29 18:00:00 TS 28.7500 166.850 main 2399 2395 O__O__________ jtwc_wp WP272000 28.7000 166.800 TD 30 -1 28.8000 166.900 TD 25 1006 5 47
2000272N24165 2000 90 WP MM NOT_NAMED 2000-09-29 21:00:00 TS 28.9287 167.071 main 2400 2387 P__P__________ WP272000 28.9075 167.043 TD 27 -1 28.9500 167.100 TD 25 1006 5 48
2000272N24165 2000 90 WP MM NOT_NAMED 2000-09-30 00:00:00 TS 29.1000 167.300 main 2392 2388 O__O__________ jtwc_wp WP272000 29.1000 167.300 TD 25 -1 29.1000 167.300 TD 25 1006 5 52
2000272N24165 2000 90 WP MM NOT_NAMED 2000-09-30 03:00:00 TS 29.2463 167.533 main 2394 2384 P__P__________ WP272000 29.2500 167.565 TD 25 -1 29.2425 167.500 TD 25 1006 5 53
2000272N24165 2000 90 WP MM NOT_NAMED 2000-09-30 06:00:00 TS 29.4000 167.757 main 2392 2379 O__O__________ jtwc_wp WP272000 29.4000 167.800 TD 25 -1 29.4000 167.700 TD 25 1006 5 46
2000272N24165 2000 90 WP MM NOT_NAMED 2000-09-30 09:00:00 TS 29.6017 167.953 main 2384 2372 P__P__________ WP272000 29.6075 167.980 TD 25 -1 29.5901 167.900 TD 25 1006 5 37
2000272N24165 2000 90 WP MM NOT_NAMED 2000-09-30 12:00:00 TS 29.8000 168.100 main 2372 2363 O__O__________ jtwc_wp WP272000 29.8000 168.100 TD 25 -1 29.8000 168.100 TD 25 1006 4 30
2000272N24165 2000 90 WP MM NOT_NAMED 2000-09-30 15:00:00 TS 29.9225 168.165 main 2368 2359 P_____________ WP272000 29.9225 168.165 TD 25 -1 TD 2 25
2000272N24165 2000 90 WP MM NOT_NAMED 2000-09-30 18:00:00 TS 30.0000 168.200 main 2359 O_____________ jtwc_wp WP272000 30.0000 168.200 TD 25 -1 2 29

デジタル台風データ・検索

IBTrACS Databaseについて

本データベースは、米国NOAAが公開する1842年以降の世界の熱帯低気圧のベストトラックデータアーカイブInternational Best Track Archive for Climate Stewardship (IBTrACS)を、ウェブで閲覧しやすい形式に変換したものです。

最終更新日:2021-10-19